sensor_id;sensor_type;location;lat;lon;timestamp;pressure;altitude;pressure_sealevel;temperature;humidity
12221;BME280;6173;42.024;23.096;2022-08-11T00:00:05;96790.41;;;18.31;100.00
12221;BME280;6173;42.024;23.096;2022-08-11T00:02:34;96807.84;;;18.38;100.00
12221;BME280;6173;42.024;23.096;2022-08-11T00:05:05;96789.16;;;18.29;100.00
12221;BME280;6173;42.024;23.096;2022-08-11T00:07:34;96755.13;;;18.08;100.00
12221;BME280;6173;42.024;23.096;2022-08-11T00:10:11;96782.78;;;18.33;100.00
12221;BME280;6173;42.024;23.096;2022-08-11T00:12:39;96790.75;;;18.30;100.00
12221;BME280;6173;42.024;23.096;2022-08-11T00:15:08;96795.28;;;18.29;100.00
12221;BME280;6173;42.024;23.096;2022-08-11T00:17:36;96778.84;;;18.19;100.00
12221;BME280;6173;42.024;23.096;2022-08-11T00:20:06;96783.09;;;18.20;100.00
12221;BME280;6173;42.024;23.096;2022-08-11T00:22:35;96789.38;;;18.24;100.00
12221;BME280;6173;42.024;23.096;2022-08-11T00:25:11;96789.63;;;18.31;100.00
12221;BME280;6173;42.024;23.096;2022-08-11T00:27:40;96798.72;;;18.18;100.00
12221;BME280;6173;42.024;23.096;2022-08-11T00:30:09;96783.97;;;18.12;100.00
12221;BME280;6173;42.024;23.096;2022-08-11T00:32:39;96792.38;;;18.22;100.00
12221;BME280;6173;42.024;23.096;2022-08-11T00:35:14;96779.94;;;18.05;100.00
12221;BME280;6173;42.024;23.096;2022-08-11T00:37:44;96797.19;;;18.17;100.00
12221;BME280;6173;42.024;23.096;2022-08-11T00:40:19;96796.69;;;18.02;100.00
12221;BME280;6173;42.024;23.096;2022-08-11T00:42:58;96801.50;;;18.09;100.00
12221;BME280;6173;42.024;23.096;2022-08-11T00:45:31;96798.81;;;18.09;100.00
12221;BME280;6173;42.024;23.096;2022-08-11T00:48:06;96801.81;;;17.95;100.00
12221;BME280;6173;42.024;23.096;2022-08-11T00:50:43;96803.16;;;18.01;100.00
12221;BME280;6173;42.024;23.096;2022-08-11T00:53:29;96795.63;;;17.95;100.00
12221;BME280;6173;42.024;23.096;2022-08-11T00:56:33;96795.25;;;17.84;100.00
12221;BME280;6173;42.024;23.096;2022-08-11T00:59:39;96798.81;;;17.76;100.00
12221;BME280;6173;42.024;23.096;2022-08-11T01:02:16;96798.47;;;17.77;100.00
12221;BME280;6173;42.024;23.096;2022-08-11T01:11:52;96803.50;;;17.79;100.00
12221;BME280;6173;42.024;23.096;2022-08-11T01:14:51;96815.06;;;17.71;100.00
12221;BME280;6173;42.024;23.096;2022-08-11T01:24:18;96800.97;;;17.82;100.00
12221;BME280;6173;42.024;23.096;2022-08-11T01:30:40;96797.22;;;17.75;100.00
12221;BME280;6173;42.024;23.096;2022-08-11T01:33:56;96793.00;;;17.65;100.00
12221;BME280;6173;42.024;23.096;2022-08-11T01:37:15;96778.47;;;17.54;100.00
12221;BME280;6173;42.024;23.096;2022-08-11T01:40:13;96785.47;;;17.46;100.00
12221;BME280;6173;42.024;23.096;2022-08-11T01:46:06;96793.56;;;17.58;100.00
12221;BME280;6173;42.024;23.096;2022-08-11T01:48:41;96790.44;;;17.56;100.00
12221;BME280;6173;42.024;23.096;2022-08-11T01:51:33;96795.97;;;17.51;100.00
12221;BME280;6173;42.024;23.096;2022-08-11T01:54:10;96800.59;;;17.42;100.00
12221;BME280;6173;42.024;23.096;2022-08-11T01:56:52;96791.31;;;17.40;100.00
12221;BME280;6173;42.024;23.096;2022-08-11T01:59:25;96796.03;;;17.43;100.00
12221;BME280;6173;42.024;23.096;2022-08-11T02:02:14;96796.81;;;17.43;100.00
12221;BME280;6173;42.024;23.096;2022-08-11T02:04:51;96780.50;;;17.36;100.00
12221;BME280;6173;42.024;23.096;2022-08-11T02:07:32;96796.81;;;17.43;100.00
12221;BME280;6173;42.024;23.096;2022-08-11T02:10:15;96792.72;;;17.46;100.00
12221;BME280;6173;42.024;23.096;2022-08-11T02:13:14;96793.75;;;17.33;100.00
12221;BME280;6173;42.024;23.096;2022-08-11T02:15:45;96785.56;;;17.29;100.00
12221;BME280;6173;42.024;23.096;2022-08-11T02:18:20;96786.34;;;17.29;100.00
12221;BME280;6173;42.024;23.096;2022-08-11T02:20:50;96782.88;;;17.29;100.00
12221;BME280;6173;42.024;23.096;2022-08-11T02:23:42;96783.81;;;17.33;100.00
12221;BME280;6173;42.024;23.096;2022-08-11T02:26:17;96748.47;;;16.98;100.00
12221;BME280;6173;42.024;23.096;2022-08-11T02:29:00;96785.06;;;17.36;100.00
12221;BME280;6173;42.024;23.096;2022-08-11T02:31:39;96790.47;;;17.27;100.00
12221;BME280;6173;42.024;23.096;2022-08-11T02:34:34;96791.13;;;17.24;100.00
12221;BME280;6173;42.024;23.096;2022-08-11T02:37:26;96800.91;;;17.20;100.00
12221;BME280;6173;42.024;23.096;2022-08-11T02:40:09;96793.97;;;17.19;100.00
12221;BME280;6173;42.024;23.096;2022-08-11T02:42:47;96790.53;;;17.18;100.00
12221;BME280;6173;42.024;23.096;2022-08-11T02:45:31;96796.63;;;17.27;100.00
12221;BME280;6173;42.024;23.096;2022-08-11T02:48:05;96775.28;;;17.10;100.00
12221;BME280;6173;42.024;23.096;2022-08-11T02:50:57;96790.00;;;17.25;100.00
12221;BME280;6173;42.024;23.096;2022-08-11T02:53:36;96794.47;;;17.21;100.00
12221;BME280;6173;42.024;23.096;2022-08-11T02:56:10;96795.84;;;17.27;100.00
12221;BME280;6173;42.024;23.096;2022-08-11T02:58:50;96794.69;;;17.07;100.00
12221;BME280;6173;42.024;23.096;2022-08-11T03:01:40;96800.91;;;17.20;100.00
12221;BME280;6173;42.024;23.096;2022-08-11T03:04:12;96802.00;;;17.19;100.00
12221;BME280;6173;42.024;23.096;2022-08-11T03:06:49;96798.09;;;17.16;100.00
12221;BME280;6173;42.024;23.096;2022-08-11T03:09:23;96792.09;;;17.19;100.00
12221;BME280;6173;42.024;23.096;2022-08-11T03:11:58;96804.06;;;17.22;100.00
12221;BME280;6173;42.024;23.096;2022-08-11T03:14:50;96803.28;;;17.21;100.00
12221;BME280;6173;42.024;23.096;2022-08-11T03:17:40;96794.53;;;17.03;100.00
12221;BME280;6173;42.024;23.096;2022-08-11T03:20:32;96803.03;;;17.05;100.00
12221;BME280;6173;42.024;23.096;2022-08-11T03:23:08;96800.69;;;17.04;100.00
12221;BME280;6173;42.024;23.096;2022-08-11T03:25:50;96809.22;;;16.97;100.00
12221;BME280;6173;42.024;23.096;2022-08-11T03:28:27;96784.72;;;16.87;100.00
12221;BME280;6173;42.024;23.096;2022-08-11T03:31:09;96806.19;;;17.08;100.00
12221;BME280;6173;42.024;23.096;2022-08-11T03:33:43;96799.44;;;17.01;100.00
12221;BME280;6173;42.024;23.096;2022-08-11T03:36:58;96801.56;;;16.87;100.00
12221;BME280;6173;42.024;23.096;2022-08-11T03:39:44;96806.50;;;16.76;100.00
12221;BME280;6173;42.024;23.096;2022-08-11T03:42:19;96803.75;;;16.85;100.00
12221;BME280;6173;42.024;23.096;2022-08-11T03:45:00;96801.25;;;16.80;100.00
12221;BME280;6173;42.024;23.096;2022-08-11T03:47:57;96796.50;;;16.86;100.00
12221;BME280;6173;42.024;23.096;2022-08-11T03:50:47;96793.56;;;16.78;100.00
12221;BME280;6173;42.024;23.096;2022-08-11T03:53:22;96802.19;;;16.84;100.00
12221;BME280;6173;42.024;23.096;2022-08-11T03:56:16;96802.69;;;16.86;100.00
12221;BME280;6173;42.024;23.096;2022-08-11T04:02:11;96800.22;;;17.02;100.00
12221;BME280;6173;42.024;23.096;2022-08-11T04:05:04;96782.97;;;16.91;100.00
12221;BME280;6173;42.024;23.096;2022-08-11T04:08:03;96808.13;;;16.98;100.00
12221;BME280;6173;42.024;23.096;2022-08-11T04:14:11;96808.66;;;17.13;100.00
12221;BME280;6173;42.024;23.096;2022-08-11T04:17:21;96805.53;;;17.11;100.00
12221;BME280;6173;42.024;23.096;2022-08-11T04:20:18;96799.66;;;17.17;100.00
12221;BME280;6173;42.024;23.096;2022-08-11T04:23:24;96816.88;;;17.37;100.00
12221;BME280;6173;42.024;23.096;2022-08-11T04:26:28;96807.28;;;17.36;100.00
12221;BME280;6173;42.024;23.096;2022-08-11T04:29:04;96815.38;;;17.48;100.00
12221;BME280;6173;42.024;23.096;2022-08-11T04:31:37;96818.19;;;17.52;100.00
12221;BME280;6173;42.024;23.096;2022-08-11T04:34:18;96823.34;;;17.57;100.00
12221;BME280;6173;42.024;23.096;2022-08-11T04:37:29;96817.72;;;17.71;100.00
12221;BME280;6173;42.024;23.096;2022-08-11T04:43:18;96813.56;;;17.82;100.00
12221;BME280;6173;42.024;23.096;2022-08-11T04:46:18;96811.47;;;17.88;100.00
12221;BME280;6173;42.024;23.096;2022-08-11T04:52:59;96820.22;;;17.97;100.00
12221;BME280;6173;42.024;23.096;2022-08-11T04:56:14;96823.09;;;17.92;100.00
12221;BME280;6173;42.024;23.096;2022-08-11T04:59:13;96819.53;;;18.00;100.00
12221;BME280;6173;42.024;23.096;2022-08-11T05:02:37;96820.16;;;18.05;100.00
12221;BME280;6173;42.024;23.096;2022-08-11T05:05:19;96817.28;;;18.11;100.00
12221;BME280;6173;42.024;23.096;2022-08-11T05:11:37;96810.94;;;18.27;100.00
12221;BME280;6173;42.024;23.096;2022-08-11T05:14:29;96809.50;;;18.30;100.00
12221;BME280;6173;42.024;23.096;2022-08-11T05:17:23;96810.09;;;18.36;100.00
12221;BME280;6173;42.024;23.096;2022-08-11T05:20:11;96811.09;;;18.43;100.00
12221;BME280;6173;42.024;23.096;2022-08-11T05:23:00;96785.72;;;18.41;100.00
12221;BME280;6173;42.024;23.096;2022-08-11T05:25:47;96786.59;;;18.32;100.00
12221;BME280;6173;42.024;23.096;2022-08-11T05:28:41;96789.88;;;18.50;100.00
12221;BME280;6173;42.024;23.096;2022-08-11T05:31:31;96801.06;;;18.65;100.00
12221;BME280;6173;42.024;23.096;2022-08-11T05:34:19;96782.50;;;18.59;100.00
12221;BME280;6173;42.024;23.096;2022-08-11T05:37:07;96804.97;;;18.67;100.00
12221;BME280;6173;42.024;23.096;2022-08-11T05:39:42;96794.06;;;18.27;100.00
12221;BME280;6173;42.024;23.096;2022-08-11T05:42:28;96807.88;;;18.50;100.00
12221;BME280;6173;42.024;23.096;2022-08-11T05:45:16;96803.25;;;18.38;100.00
12221;BME280;6173;42.024;23.096;2022-08-11T05:48:02;96799.50;;;18.51;100.00
12221;BME280;6173;42.024;23.096;2022-08-11T05:50:51;96802.19;;;18.64;100.00
12221;BME280;6173;42.024;23.096;2022-08-11T05:53:45;96799.84;;;18.74;100.00
12221;BME280;6173;42.024;23.096;2022-08-11T05:56:32;96800.88;;;18.70;100.00
12221;BME280;6173;42.024;23.096;2022-08-11T05:59:00;96799.88;;;18.99;100.00
12221;BME280;6173;42.024;23.096;2022-08-11T06:01:30;96797.97;;;19.11;100.00
12221;BME280;6173;42.024;23.096;2022-08-11T06:04:04;96802.00;;;19.18;100.00
12221;BME280;6173;42.024;23.096;2022-08-11T06:06:56;96796.50;;;19.26;100.00
12221;BME280;6173;42.024;23.096;2022-08-11T06:09:26;96801.53;;;19.40;100.00
12221;BME280;6173;42.024;23.096;2022-08-11T06:11:56;96799.81;;;19.48;100.00
12221;BME280;6173;42.024;23.096;2022-08-11T06:14:24;96794.78;;;19.46;100.00
12221;BME280;6173;42.024;23.096;2022-08-11T06:16:55;96772.06;;;19.44;100.00
12221;BME280;6173;42.024;23.096;2022-08-11T06:19:31;96782.44;;;19.70;100.00
12221;BME280;6173;42.024;23.096;2022-08-11T06:22:00;96792.06;;;19.71;100.00
12221;BME280;6173;42.024;23.096;2022-08-11T06:24:28;96793.72;;;19.75;100.00
12221;BME280;6173;42.024;23.096;2022-08-11T06:26:56;96782.56;;;19.61;100.00
12221;BME280;6173;42.024;23.096;2022-08-11T06:29:24;96783.50;;;19.81;100.00
12221;BME280;6173;42.024;23.096;2022-08-11T06:31:56;96765.38;;;19.78;100.00
12221;BME280;6173;42.024;23.096;2022-08-11T06:34:32;96780.13;;;19.84;100.00
12221;BME280;6173;42.024;23.096;2022-08-11T06:37:13;96760.06;;;19.66;100.00
12221;BME280;6173;42.024;23.096;2022-08-11T06:39:47;96777.75;;;19.95;100.00
12221;BME280;6173;42.024;23.096;2022-08-11T06:42:33;96775.25;;;19.74;100.00
12221;BME280;6173;42.024;23.096;2022-08-11T06:45:06;96779.22;;;19.92;100.00
12221;BME280;6173;42.024;23.096;2022-08-11T06:47:43;96782.00;;;19.96;100.00
12221;BME280;6173;42.024;23.096;2022-08-11T06:50:15;96769.97;;;20.05;100.00
12221;BME280;6173;42.024;23.096;2022-08-11T06:53:03;96767.91;;;20.14;100.00
12221;BME280;6173;42.024;23.096;2022-08-11T06:55:33;96762.06;;;20.12;100.00
12221;BME280;6173;42.024;23.096;2022-08-11T06:58:20;96743.78;;;20.18;100.00
12221;BME280;6173;42.024;23.096;2022-08-11T07:01:07;96775.38;;;20.37;100.00
12221;BME280;6173;42.024;23.096;2022-08-11T07:03:42;96777.78;;;20.54;100.00
12221;BME280;6173;42.024;23.096;2022-08-11T07:06:21;96758.84;;;20.51;100.00
12221;BME280;6173;42.024;23.096;2022-08-11T07:09:16;96763.09;;;20.52;100.00
12221;BME280;6173;42.024;23.096;2022-08-11T14:07:09;96446.81;;;37.29;23.60
12221;BME280;6173;42.024;23.096;2022-08-11T14:09:41;96442.38;;;38.57;21.84
12221;BME280;6173;42.024;23.096;2022-08-11T14:12:13;96432.00;;;38.52;21.93
12221;BME280;6173;42.024;23.096;2022-08-11T14:15:00;96446.84;;;39.28;21.37
12221;BME280;6173;42.024;23.096;2022-08-11T14:17:31;96446.13;;;42.05;18.81
12221;BME280;6173;42.024;23.096;2022-08-11T14:20:03;96442.72;;;44.08;17.74
12221;BME280;6173;42.024;23.096;2022-08-11T14:22:34;96452.41;;;45.15;17.57
12221;BME280;6173;42.024;23.096;2022-08-11T14:25:04;96438.72;;;45.35;16.30
12221;BME280;6173;42.024;23.096;2022-08-11T14:27:31;96437.66;;;43.32;17.48
12221;BME280;6173;42.024;23.096;2022-08-11T14:29:58;96412.56;;;39.46;20.86
12221;BME280;6173;42.024;23.096;2022-08-11T14:32:26;96429.22;;;36.75;23.30
12221;BME280;6173;42.024;23.096;2022-08-11T14:34:54;96422.31;;;36.80;23.87
12221;BME280;6173;42.024;23.096;2022-08-11T14:37:22;96428.56;;;36.98;24.48
12221;BME280;6173;42.024;23.096;2022-08-11T14:39:55;96422.28;;;39.97;21.15
12221;BME280;6173;42.024;23.096;2022-08-11T14:42:24;96427.31;;;40.97;20.49
12221;BME280;6173;42.024;23.096;2022-08-11T14:45:10;96427.34;;;43.85;17.84
12221;BME280;6173;42.024;23.096;2022-08-11T14:47:57;96426.53;;;45.08;16.72
12221;BME280;6173;42.024;23.096;2022-08-11T14:50:28;96438.97;;;45.13;16.55
12221;BME280;6173;42.024;23.096;2022-08-11T14:52:58;96410.53;;;46.20;15.98
12221;BME280;6173;42.024;23.096;2022-08-11T14:55:28;96427.38;;;45.77;16.17
12221;BME280;6173;42.024;23.096;2022-08-11T14:58:15;96420.56;;;44.63;17.34
12221;BME280;6173;42.024;23.096;2022-08-11T15:00:43;96420.91;;;43.32;18.00
12221;BME280;6173;42.024;23.096;2022-08-11T15:03:12;96422.72;;;42.84;18.34
12221;BME280;6173;42.024;23.096;2022-08-11T15:05:41;96410.31;;;43.94;17.58
12221;BME280;6173;42.024;23.096;2022-08-11T15:08:12;96411.63;;;43.76;17.96
12221;BME280;6173;42.024;23.096;2022-08-11T15:10:41;96419.94;;;41.74;19.07
12221;BME280;6173;42.024;23.096;2022-08-11T15:13:09;96410.25;;;41.58;19.42
12221;BME280;6173;42.024;23.096;2022-08-11T15:15:36;96402.63;;;41.48;19.80
12221;BME280;6173;42.024;23.096;2022-08-11T15:18:23;96410.00;;;40.50;20.88
12221;BME280;6173;42.024;23.096;2022-08-11T15:20:51;96405.53;;;38.66;22.29
12221;BME280;6173;42.024;23.096;2022-08-11T15:23:37;96412.63;;;39.17;21.97
12221;BME280;6173;42.024;23.096;2022-08-11T15:26:37;96409.56;;;42.63;18.86
12221;BME280;6173;42.024;23.096;2022-08-11T15:29:28;96404.81;;;41.87;20.22
12221;BME280;6173;42.024;23.096;2022-08-11T15:32:15;96390.38;;;39.11;22.22
12221;BME280;6173;42.024;23.096;2022-08-11T15:35:02;96397.22;;;37.59;23.40
12221;BME280;6173;42.024;23.096;2022-08-11T15:37:50;96408.78;;;36.21;24.48
12221;BME280;6173;42.024;23.096;2022-08-11T15:40:23;96401.81;;;34.40;26.03
12221;BME280;6173;42.024;23.096;2022-08-11T15:43:14;96393.06;;;33.76;27.38
12221;BME280;6173;42.024;23.096;2022-08-11T15:46:02;96400.91;;;33.17;28.62
12221;BME280;6173;42.024;23.096;2022-08-11T15:48:40;96405.16;;;32.80;28.92
12221;BME280;6173;42.024;23.096;2022-08-11T15:51:11;96404.47;;;31.92;29.92
12221;BME280;6173;42.024;23.096;2022-08-11T15:53:42;96402.66;;;32.02;29.92
12221;BME280;6173;42.024;23.096;2022-08-11T15:56:10;96404.16;;;31.74;30.34
12221;BME280;6173;42.024;23.096;2022-08-11T15:58:41;96413.25;;;31.71;30.30
12221;BME280;6173;42.024;23.096;2022-08-11T16:01:28;96410.03;;;31.27;31.78
12221;BME280;6173;42.024;23.096;2022-08-11T16:04:15;96412.59;;;30.82;33.19
12221;BME280;6173;42.024;23.096;2022-08-11T16:06:52;96417.50;;;30.91;33.30
12221;BME280;6173;42.024;23.096;2022-08-11T16:09:27;96418.28;;;30.91;32.89
12221;BME280;6173;42.024;23.096;2022-08-11T16:11:59;96414.53;;;30.45;34.26
12221;BME280;6173;42.024;23.096;2022-08-11T16:14:31;96415.84;;;29.97;35.39
12221;BME280;6173;42.024;23.096;2022-08-11T16:17:17;96419.63;;;29.60;36.21
12221;BME280;6173;42.024;23.096;2022-08-11T16:19:47;96415.53;;;29.72;36.35
12221;BME280;6173;42.024;23.096;2022-08-11T16:22:20;96419.69;;;29.56;36.68
12221;BME280;6173;42.024;23.096;2022-08-11T16:24:53;96412.47;;;28.92;37.95
12221;BME280;6173;42.024;23.096;2022-08-11T16:27:24;96414.28;;;28.45;39.00
12221;BME280;6173;42.024;23.096;2022-08-11T16:29:54;96414.63;;;28.47;39.50
12221;BME280;6173;42.024;23.096;2022-08-11T16:32:23;96414.81;;;28.29;39.86
12221;BME280;6173;42.024;23.096;2022-08-11T16:34:54;96418.28;;;28.33;40.30
12221;BME280;6173;42.024;23.096;2022-08-11T16:37:39;96425.53;;;28.09;40.62
12221;BME280;6173;42.024;23.096;2022-08-11T16:40:25;96416.13;;;28.17;40.38
12221;BME280;6173;42.024;23.096;2022-08-11T16:42:53;96414.38;;;28.00;41.11
12221;BME280;6173;42.024;23.096;2022-08-11T16:45:41;96425.44;;;27.82;41.65
12221;BME280;6173;42.024;23.096;2022-08-11T16:48:29;96428.72;;;27.63;42.14
12221;BME280;6173;42.024;23.096;2022-08-11T16:50:57;96426.41;;;27.61;42.54
12221;BME280;6173;42.024;23.096;2022-08-11T16:53:27;96430.00;;;27.51;42.63
12221;BME280;6173;42.024;23.096;2022-08-11T16:55:56;96442.06;;;27.46;42.90
12221;BME280;6173;42.024;23.096;2022-08-11T16:58:29;96444.88;;;27.36;43.12
12221;BME280;6173;42.024;23.096;2022-08-11T17:01:19;96447.88;;;27.48;43.31
12221;BME280;6173;42.024;23.096;2022-08-11T17:03:54;96451.38;;;27.49;42.84
12221;BME280;6173;42.024;23.096;2022-08-11T17:06:44;96455.34;;;27.41;42.75
12221;BME280;6173;42.024;23.096;2022-08-11T17:09:33;96452.38;;;27.21;43.49
12221;BME280;6173;42.024;23.096;2022-08-11T17:12:20;96447.75;;;27.14;43.91
12221;BME280;6173;42.024;23.096;2022-08-11T17:15:11;96454.81;;;27.01;44.41
12221;BME280;6173;42.024;23.096;2022-08-11T17:17:57;96449.38;;;27.01;43.41
12221;BME280;6173;42.024;23.096;2022-08-11T17:20:26;96448.25;;;26.91;41.86
12221;BME280;6173;42.024;23.096;2022-08-11T17:22:53;96459.94;;;26.85;42.56
12221;BME280;6173;42.024;23.096;2022-08-11T17:25:40;96457.25;;;26.81;42.40
12221;BME280;6173;42.024;23.096;2022-08-11T17:28:07;96466.22;;;26.71;42.71
12221;BME280;6173;42.024;23.096;2022-08-11T17:30:37;96462.75;;;26.63;42.72
12221;BME280;6173;42.024;23.096;2022-08-11T17:33:24;96476.34;;;26.63;44.01
12221;BME280;6173;42.024;23.096;2022-08-11T17:36:09;96480.31;;;26.30;45.84
12221;BME280;6173;42.024;23.096;2022-08-11T17:38:37;96461.72;;;26.21;45.67
12221;BME280;6173;42.024;23.096;2022-08-11T17:41:06;96471.41;;;26.26;45.79
12221;BME280;6173;42.024;23.096;2022-08-11T17:44:03;96474.50;;;26.28;47.79
12221;BME280;6173;42.024;23.096;2022-08-11T17:46:48;96483.47;;;26.11;43.09
12221;BME280;6173;42.024;23.096;2022-08-11T17:49:37;96485.41;;;26.17;42.87
12221;BME280;6173;42.024;23.096;2022-08-11T17:52:05;96477.28;;;25.99;43.41
12221;BME280;6173;42.024;23.096;2022-08-11T17:54:51;96486.59;;;25.95;43.39
12221;BME280;6173;42.024;23.096;2022-08-11T17:57:38;96486.19;;;26.03;43.64
12221;BME280;6173;42.024;23.096;2022-08-11T18:00:23;96476.91;;;25.94;44.44
12221;BME280;6173;42.024;23.096;2022-08-11T18:02:52;96484.28;;;25.83;44.87
12221;BME280;6173;42.024;23.096;2022-08-11T18:05:41;96497.47;;;25.84;45.16
12221;BME280;6173;42.024;23.096;2022-08-11T18:08:11;96494.38;;;25.78;45.35
12221;BME280;6173;42.024;23.096;2022-08-11T18:10:56;96488.91;;;25.53;45.62
12221;BME280;6173;42.024;23.096;2022-08-11T18:13:43;96476.94;;;25.51;46.17
12221;BME280;6173;42.024;23.096;2022-08-11T18:16:28;96494.72;;;25.56;46.14
12221;BME280;6173;42.024;23.096;2022-08-11T18:19:13;96500.53;;;25.54;46.84
12221;BME280;6173;42.024;23.096;2022-08-11T18:22:02;96507.13;;;25.60;47.19
12221;BME280;6173;42.024;23.096;2022-08-11T18:24:53;96485.06;;;25.37;47.05
12221;BME280;6173;42.024;23.096;2022-08-11T18:27:43;96499.00;;;25.57;46.05
12221;BME280;6173;42.024;23.096;2022-08-11T18:30:30;96516.81;;;25.58;45.93
12221;BME280;6173;42.024;23.096;2022-08-11T18:33:19;96520.69;;;25.60;46.00
12221;BME280;6173;42.024;23.096;2022-08-11T18:36:07;96522.63;;;25.52;46.95
12221;BME280;6173;42.024;23.096;2022-08-11T18:38:56;96497.84;;;25.36;47.38
12221;BME280;6173;42.024;23.096;2022-08-11T18:41:41;96509.81;;;25.46;47.33
12221;BME280;6173;42.024;23.096;2022-08-11T18:44:29;96490.44;;;25.30;48.70
12221;BME280;6173;42.024;23.096;2022-08-11T18:47:16;96518.75;;;25.46;48.45
12221;BME280;6173;42.024;23.096;2022-08-11T18:50:04;96518.75;;;25.32;48.47
12221;BME280;6173;42.024;23.096;2022-08-11T18:52:52;96518.31;;;25.12;50.35
12221;BME280;6173;42.024;23.096;2022-08-11T18:55:41;96524.06;;;25.04;50.92
12221;BME280;6173;42.024;23.096;2022-08-11T18:58:28;96522.81;;;24.80;52.56
12221;BME280;6173;42.024;23.096;2022-08-11T19:01:15;96514.28;;;24.74;51.38
12221;BME280;6173;42.024;23.096;2022-08-11T19:04:02;96530.88;;;24.62;52.28
12221;BME280;6173;42.024;23.096;2022-08-11T19:06:51;96535.47;;;24.54;52.81
12221;BME280;6173;42.024;23.096;2022-08-11T19:09:37;96517.22;;;24.40;52.72
12221;BME280;6173;42.024;23.096;2022-08-11T19:12:25;96535.03;;;24.45;52.41
12221;BME280;6173;42.024;23.096;2022-08-11T19:15:14;96535.72;;;24.35;52.80
12221;BME280;6173;42.024;23.096;2022-08-11T19:18:01;96542.38;;;24.44;51.93
12221;BME280;6173;42.024;23.096;2022-08-11T19:20:46;96412.38;;;23.64;52.03
12221;BME280;6173;42.024;23.096;2022-08-11T19:23:33;96537.28;;;24.32;52.28
12221;BME280;6173;42.024;23.096;2022-08-11T19:26:19;96544.28;;;24.37;52.18
12221;BME280;6173;42.024;23.096;2022-08-11T19:29:06;96546.53;;;24.28;52.36
12221;BME280;6173;42.024;23.096;2022-08-11T19:31:52;96553.81;;;24.20;52.76
12221;BME280;6173;42.024;23.096;2022-08-11T19:34:38;96522.72;;;23.92;52.85
12221;BME280;6173;42.024;23.096;2022-08-11T19:37:24;96549.47;;;24.05;53.56
12221;BME280;6173;42.024;23.096;2022-08-11T19:40:09;96559.91;;;24.06;53.46
12221;BME280;6173;42.024;23.096;2022-08-11T19:42:56;96551.38;;;24.04;53.92
12221;BME280;6173;42.024;23.096;2022-08-11T19:45:42;96542.31;;;23.79;54.31
12221;BME280;6173;42.024;23.096;2022-08-11T19:48:29;96552.00;;;23.83;55.18
12221;BME280;6173;42.024;23.096;2022-08-11T19:51:16;96557.81;;;23.85;55.75
12221;BME280;6173;42.024;23.096;2022-08-11T19:54:02;96564.63;;;23.68;55.91
12221;BME280;6173;42.024;23.096;2022-08-11T19:56:48;96558.03;;;23.66;56.68
12221;BME280;6173;42.024;23.096;2022-08-11T19:59:33;96556.88;;;23.63;57.84
12221;BME280;6173;42.024;23.096;2022-08-11T20:02:19;96559.88;;;23.62;57.45
12221;BME280;6173;42.024;23.096;2022-08-11T20:05:05;96562.59;;;23.58;57.79
12221;BME280;6173;42.024;23.096;2022-08-11T20:07:50;96563.59;;;23.43;58.37
12221;BME280;6173;42.024;23.096;2022-08-11T20:10:37;96559.88;;;23.17;60.38
12221;BME280;6173;42.024;23.096;2022-08-11T20:13:22;96566.72;;;23.11;61.55
12221;BME280;6173;42.024;23.096;2022-08-11T20:16:10;96566.31;;;23.09;61.51
12221;BME280;6173;42.024;23.096;2022-08-11T20:18:58;96574.09;;;23.14;61.77
12221;BME280;6173;42.024;23.096;2022-08-11T20:21:43;96576.03;;;23.14;61.79
12221;BME280;6173;42.024;23.096;2022-08-11T20:24:28;96573.31;;;23.14;62.37
12221;BME280;6173;42.024;23.096;2022-08-11T20:27:14;96573.38;;;23.17;62.69
12221;BME280;6173;42.024;23.096;2022-08-11T20:30:00;96579.47;;;23.11;61.96
12221;BME280;6173;42.024;23.096;2022-08-11T20:32:46;96575.22;;;23.10;61.55
12221;BME280;6173;42.024;23.096;2022-08-11T20:35:33;96570.09;;;23.01;61.43
12221;BME280;6173;42.024;23.096;2022-08-11T20:38:21;96578.28;;;23.08;61.02
12221;BME280;6173;42.024;23.096;2022-08-11T20:41:07;96588.66;;;23.06;62.81
12221;BME280;6173;42.024;23.096;2022-08-11T20:43:54;96587.06;;;23.02;63.59
12221;BME280;6173;42.024;23.096;2022-08-11T20:46:40;96576.75;;;22.81;64.36
12221;BME280;6173;42.024;23.096;2022-08-11T20:49:26;96586.94;;;22.91;64.33
12221;BME280;6173;42.024;23.096;2022-08-11T20:52:13;96595.41;;;22.89;63.62
12221;BME280;6173;42.024;23.096;2022-08-11T20:54:59;96585.00;;;22.91;63.40
12221;BME280;6173;42.024;23.096;2022-08-11T20:57:46;96576.75;;;22.81;63.42
12221;BME280;6173;42.024;23.096;2022-08-11T21:00:33;96599.47;;;23.06;62.66
12221;BME280;6173;42.024;23.096;2022-08-11T21:03:18;96605.97;;;22.98;62.96
12221;BME280;6173;42.024;23.096;2022-08-11T21:06:04;96610.28;;;23.06;62.86
12221;BME280;6173;42.024;23.096;2022-08-11T21:08:51;96596.88;;;22.87;63.31
12221;BME280;6173;42.024;23.096;2022-08-11T21:11:37;96601.00;;;23.04;61.98
12221;BME280;6173;42.024;23.096;2022-08-11T21:14:23;96588.97;;;22.98;61.42
12221;BME280;6173;42.024;23.096;2022-08-11T21:17:08;96604.34;;;22.93;62.61
12221;BME280;6173;42.024;23.096;2022-08-11T21:19:55;96618.72;;;23.01;61.97
12221;BME280;6173;42.024;23.096;2022-08-11T21:22:43;96620.13;;;22.91;63.21
12221;BME280;6173;42.024;23.096;2022-08-11T21:25:33;96620.75;;;22.81;63.59
12221;BME280;6173;42.024;23.096;2022-08-11T21:28:18;96615.34;;;22.81;63.07
12221;BME280;6173;42.024;23.096;2022-08-11T21:31:04;96620.91;;;22.92;63.33
12221;BME280;6173;42.024;23.096;2022-08-11T21:33:50;96623.03;;;22.79;64.00
12221;BME280;6173;42.024;23.096;2022-08-11T21:36:34;96616.72;;;22.68;64.23
12221;BME280;6173;42.024;23.096;2022-08-11T21:39:20;96625.28;;;22.74;64.35
12221;BME280;6173;42.024;23.096;2022-08-11T21:42:09;96635.97;;;22.66;64.88
12221;BME280;6173;42.024;23.096;2022-08-11T21:44:54;96641.06;;;22.71;64.61